Time;durP1;ratioP1;P1;durP2;ratioP2;P2;SDS_P1;SDS_P2;PMS_P1;PMS_P2;Temp;Humidity;BMP_temperature;BMP_pressure;BME280_temperature;BME280_humidity;BME280_pressure;Samples;Min_cycle;Max_cycle;Signal;HPM_P1;HPM_P2
2022/07/01 00:00:27;;;;;;;4.30;1.70;;;16.60;99.90;;;;;;5022842;28;20189;-75
2022/07/01 00:02:53;;;;;;;2.10;1.67;;;16.50;99.90;;;;;;5009001;28;20256;-75
2022/07/01 00:05:18;;;;;;;2.90;1.57;;;16.70;99.90;;;;;;5010345;28;20237;-75
2022/07/01 00:07:45;;;;;;;3.67;1.83;;;16.80;99.90;;;;;;5007552;28;20206;-75
2022/07/01 00:10:10;;;;;;;4.13;1.97;;;17.10;99.90;;;;;;5009311;28;20183;-75
2022/07/01 00:12:36;;;;;;;8.40;1.63;;;16.70;99.90;;;;;;5007090;28;20790;-75
2022/07/01 00:15:02;;;;;;;10.10;2.33;;;16.70;99.90;;;;;;4991541;28;20198;-75
2022/07/01 00:17:27;;;;;;;2.83;2.00;;;16.70;99.90;;;;;;5007662;28;20331;-75
2022/07/01 00:19:54;;;;;;;2.53;1.93;;;16.70;99.90;;;;;;5009001;28;20519;-75
2022/07/01 00:22:19;;;;;;;3.30;1.73;;;16.80;99.90;;;;;;5009616;28;20308;-76
2022/07/01 00:24:46;;;;;;;5.23;1.50;;;16.70;99.90;;;;;;5011450;28;20487;-75
2022/07/01 00:27:13;;;;;;;3.07;1.63;;;16.60;99.90;;;;;;5016110;28;20666;-75
2022/07/01 00:29:38;;;;;;;3.10;1.50;;;16.60;99.90;;;;;;5011613;28;20453;-75
2022/07/01 00:32:04;;;;;;;4.37;1.90;;;16.60;99.90;;;;;;5010899;28;20491;-75
2022/07/01 00:34:30;;;;;;;2.20;1.60;;;16.60;99.90;;;;;;5010588;28;20221;-75
2022/07/01 00:36:55;;;;;;;4.20;1.87;;;16.50;99.90;;;;;;5014085;28;20233;-76
2022/07/01 00:39:21;;;;;;;2.80;1.60;;;16.50;99.90;;;;;;5000083;28;20291;-75
2022/07/01 00:41:46;;;;;;;3.20;1.70;;;16.50;99.90;;;;;;5015048;28;20186;-75
2022/07/01 00:44:21;;;;;;;4.00;1.80;;;16.40;99.90;;;;;;5009144;28;20459;-75
2022/07/01 00:46:50;;;;;;;3.10;1.63;;;16.40;99.90;;;;;;5007410;28;20197;-75
2022/07/01 00:49:15;;;;;;;6.37;1.60;;;16.30;99.90;;;;;;5009077;28;20401;-75
2022/07/01 00:51:41;;;;;;;2.80;1.80;;;16.30;99.90;;;;;;4990532;28;20879;-75
2022/07/01 00:54:07;;;;;;;2.20;1.50;;;17.50;99.90;;;;;;5009222;28;20198;-74
2022/07/01 00:56:33;;;;;;;2.93;1.70;;;16.30;99.90;;;;;;5009592;28;20205;-75
2022/07/01 00:58:58;;;;;;;2.03;1.70;;;16.20;99.90;;;;;;4994536;28;20444;-76
2022/07/01 01:01:24;;;;;;;3.40;1.73;;;16.20;99.90;;;;;;5013453;28;20652;-75
2022/07/01 01:03:50;;;;;;;6.93;1.50;;;16.20;99.90;;;;;;4992142;28;20202;-75
2022/07/01 01:06:16;;;;;;;4.70;1.63;;;18.10;99.90;;;;;;5011338;28;20198;-75
2022/07/01 01:08:42;;;;;;;2.13;1.53;;;16.20;99.90;;;;;;4992267;28;20305;-75
2022/07/01 01:11:07;;;;;;;5.30;1.43;;;16.30;99.90;;;;;;4992701;28;20435;-75
2022/07/01 01:13:33;;;;;;;2.90;1.90;;;16.30;99.90;;;;;;5010909;28;20860;-74
2022/07/01 01:15:59;;;;;;;2.13;1.40;;;16.20;99.90;;;;;;5005849;28;20273;-75
2022/07/01 01:18:24;;;;;;;3.00;1.37;;;16.10;99.90;;;;;;4992202;28;20186;-75
2022/07/01 01:20:52;;;;;;;1.50;1.40;;;16.10;99.90;;;;;;5011400;28;20249;-75
2022/07/01 01:23:17;;;;;;;2.47;1.50;;;16.10;99.90;;;;;;4992612;28;20218;-75
2022/07/01 01:25:43;;;;;;;2.00;1.80;;;16.10;99.90;;;;;;5014373;28;20461;-74
2022/07/01 01:28:09;;;;;;;2.17;1.60;;;16.00;99.90;;;;;;5020030;28;20712;-75
2022/07/01 01:30:35;;;;;;;2.13;1.50;;;16.10;99.90;;;;;;5005299;28;20254;-75
2022/07/01 01:33:01;;;;;;;3.87;1.93;;;16.10;99.90;;;;;;5014711;28;20931;-76
2022/07/01 01:35:26;;;;;;;3.27;1.70;;;16.00;99.90;;;;;;5014674;28;20216;-75
2022/07/01 01:37:52;;;;;;;2.43;1.70;;;16.10;99.90;;;;;;4995328;28;20174;-75
2022/07/01 01:40:17;;;;;;;4.03;2.00;;;16.10;99.90;;;;;;4995268;28;20221;-75
2022/07/01 01:42:44;;;;;;;3.10;1.77;;;16.20;99.90;;;;;;4994895;28;20183;-74
2022/07/01 01:45:10;;;;;;;1.90;1.63;;;16.20;99.90;;;;;;4995132;28;20205;-75
2022/07/01 01:47:35;;;;;;;3.20;1.80;;;16.20;99.90;;;;;;5015003;28;20457;-75
2022/07/01 01:50:01;;;;;;;4.83;1.80;;;16.30;99.90;;;;;;5014262;28;20480;-75
2022/07/01 01:52:27;;;;;;;5.20;1.80;;;16.20;99.90;;;;;;5013885;28;20178;-75
2022/07/01 01:54:52;;;;;;;2.47;1.60;;;16.30;99.90;;;;;;5009504;28;20221;-75
2022/07/01 01:57:18;;;;;;;2.50;1.50;;;16.30;99.90;;;;;;4996145;28;20223;-76
2022/07/01 01:59:43;;;;;;;3.17;1.73;;;16.30;99.90;;;;;;5021504;28;20196;-75
2022/07/01 02:02:09;;;;;;;5.70;1.60;;;16.10;99.90;;;;;;5010874;28;20193;-74
2022/07/01 02:04:34;;;;;;;3.87;1.80;;;16.00;99.90;;;;;;4993206;28;20552;-75
2022/07/01 02:07:00;;;;;;;2.03;1.60;;;16.10;99.90;;;;;;5013935;28;20260;-74
2022/07/01 02:09:26;;;;;;;1.30;1.20;;;16.00;99.90;;;;;;5013204;28;20187;-74
2022/07/01 02:11:52;;;;;;;2.70;1.50;;;16.10;99.90;;;;;;5012871;28;20167;-74
2022/07/01 02:14:18;;;;;;;1.73;1.50;;;16.00;99.90;;;;;;5014029;28;20197;-74
2022/07/01 02:16:43;;;;;;;1.70;1.50;;;16.00;99.90;;;;;;4995980;28;20979;-75
2022/07/01 02:19:09;;;;;;;1.80;1.53;;;16.00;99.90;;;;;;5013189;28;20265;-75
2022/07/01 02:21:34;;;;;;;2.17;1.40;;;16.10;99.90;;;;;;5014544;28;20280;-75
2022/07/01 02:24:00;;;;;;;2.03;1.63;;;16.10;99.90;;;;;;4993534;28;20534;-75
2022/07/01 02:26:25;;;;;;;1.90;1.60;;;16.10;99.90;;;;;;4994325;28;20190;-75
2022/07/01 02:28:51;;;;;;;3.00;1.70;;;16.20;99.90;;;;;;5022271;28;20204;-75
2022/07/01 02:31:16;;;;;;;3.37;1.83;;;16.20;99.90;;;;;;5017732;28;20541;-75
2022/07/01 02:33:42;;;;;;;5.70;2.50;;;16.20;99.90;;;;;;4995591;28;20297;-76
2022/07/01 02:36:08;;;;;;;3.10;2.00;;;16.20;99.90;;;;;;5013401;28;20198;-75
2022/07/01 02:38:33;;;;;;;3.93;2.33;;;16.10;99.90;;;;;;5003851;28;20195;-75
2022/07/01 02:41:00;;;;;;;2.83;2.20;;;16.10;99.90;;;;;;5011289;28;20211;-74
2022/07/01 02:43:25;;;;;;;4.37;2.20;;;16.00;99.90;;;;;;5012849;28;20465;-74
2022/07/01 02:45:51;;;;;;;3.23;2.03;;;16.10;99.90;;;;;;5012140;28;20508;-75
2022/07/01 02:48:16;;;;;;;3.67;2.10;;;16.20;99.90;;;;;;5011798;28;20183;-74
2022/07/01 02:50:42;;;;;;;1.97;1.83;;;15.90;99.90;;;;;;5011684;28;20510;-75
2022/07/01 02:53:07;;;;;;;1.87;1.70;;;15.80;99.90;;;;;;4992887;28;20171;-74
2022/07/01 02:55:33;;;;;;;2.87;1.70;;;15.80;99.90;;;;;;4994036;28;20210;-75
2022/07/01 02:57:58;;;;;;;1.60;1.50;;;15.80;99.90;;;;;;5000239;28;20667;-75
2022/07/01 03:00:24;;;;;;;4.30;1.60;;;15.80;99.90;;;;;;5011565;28;20204;-75
2022/07/01 03:02:50;;;;;;;1.63;1.40;;;15.80;99.90;;;;;;5010481;28;20254;-75
2022/07/01 03:05:16;;;;;;;1.63;1.50;;;15.70;99.90;;;;;;5010139;28;20556;-74
2022/07/01 03:07:42;;;;;;;2.67;1.50;;;15.70;99.90;;;;;;5009718;28;20175;-74
2022/07/01 03:10:09;;;;;;;3.57;2.00;;;15.70;99.90;;;;;;5009770;28;20175;-74
2022/07/01 03:12:34;;;;;;;1.50;1.40;;;15.70;99.90;;;;;;5010833;28;20425;-75
2022/07/01 03:15:09;;;;;;;1.83;1.60;;;15.60;99.90;;;;;;4986849;28;20876;-75
2022/07/01 03:17:37;;;;;;;2.27;1.40;;;15.70;99.90;;;;;;5007486;28;20191;-75
2022/07/01 03:20:04;;;;;;;2.00;1.60;;;15.70;99.90;;;;;;5009992;28;20436;-75
2022/07/01 03:22:31;;;;;;;2.50;1.50;;;15.70;99.90;;;;;;5010171;28;20418;-75
2022/07/01 03:24:58;;;;;;;1.50;1.33;;;15.70;99.90;;;;;;5009413;28;20476;-75
2022/07/01 03:27:24;;;;;;;3.93;1.70;;;15.70;99.90;;;;;;5018043;28;20412;-75
2022/07/01 03:29:50;;;;;;;1.67;1.50;;;15.70;99.90;;;;;;5002990;28;20679;-74
2022/07/01 03:32:16;;;;;;;2.53;1.50;;;15.70;99.90;;;;;;5009752;28;20457;-74
2022/07/01 03:34:45;;;;;;;1.73;1.50;;;15.70;99.90;;;;;;5009472;28;21056;-74
2022/07/01 03:37:12;;;;;;;1.80;1.70;;;15.70;99.90;;;;;;4992705;28;20885;-75
2022/07/01 03:39:38;;;;;;;2.23;1.60;;;15.80;99.90;;;;;;4991693;28;20515;-74
2022/07/01 03:42:06;;;;;;;2.50;1.60;;;15.80;99.90;;;;;;5009898;28;20425;-75
2022/07/01 03:44:32;;;;;;;2.37;1.37;;;15.80;99.90;;;;;;4991619;28;20548;-74
2022/07/01 03:46:58;;;;;;;3.37;1.80;;;;;;;;;;4991557;28;20835;-74
2022/07/01 03:49:24;;;;;;;2.00;1.70;;;15.80;99.90;;;;;;4991210;28;20559;-74
2022/07/01 03:51:50;;;;;;;2.60;1.60;;;15.80;99.90;;;;;;4992142;28;20244;-74
2022/07/01 03:54:38;;;;;;;2.03;1.77;;;15.80;99.90;;;;;;4991908;28;20908;-74
2022/07/01 03:57:03;;;;;;;1.90;1.63;;;15.80;99.90;;;;;;5008031;28;20201;-75
2022/07/01 03:59:30;;;;;;;3.50;1.70;;;15.90;99.90;;;;;;5000403;28;20963;-74
2022/07/01 04:01:56;;;;;;;2.60;1.67;;;15.80;99.90;;;;;;5009504;28;20417;-75
2022/07/01 04:04:23;;;;;;;2.40;1.57;;;15.70;99.90;;;;;;5009801;28;20839;-75
2022/07/01 04:06:49;;;;;;;1.87;1.77;;;15.70;99.90;;;;;;5010344;28;20876;-74
2022/07/01 04:09:16;;;;;;;2.23;2.00;;;15.70;99.90;;;;;;5009048;28;20464;-74
2022/07/01 04:11:43;;;;;;;2.23;2.00;;;15.80;99.90;;;;;;5009757;28;20548;-75
2022/07/01 04:14:09;;;;;;;2.27;1.83;;;15.80;99.90;;;;;;5010233;28;20433;-75
2022/07/01 04:16:36;;;;;;;4.20;2.07;;;15.80;99.90;;;;;;4992507;28;20867;-74
2022/07/01 04:19:02;;;;;;;2.60;2.03;;;15.80;99.90;;;;;;5010046;28;21254;-75
2022/07/01 04:24:13;;;;;;;3.77;2.20;;;15.80;99.90;;;;;;5002850;28;20225;-74
2022/07/01 04:26:39;;;;;;;4.23;2.40;;;15.90;99.90;;;;;;4992856;28;20423;-75
2022/07/01 04:29:05;;;;;;;4.80;2.20;;;15.90;99.90;;;;;;5020464;28;20939;-74
2022/07/01 04:31:31;;;;;;;2.50;2.13;;;15.90;99.90;;;;;;4993268;28;20464;-74
2022/07/01 04:33:57;;;;;;;4.80;2.53;;;15.90;99.90;;;;;;5004854;28;20457;-74
2022/07/01 04:36:22;;;;;;;3.80;3.17;;;16.00;99.90;;;;;;5008800;28;20210;-74
2022/07/01 04:38:48;;;;;;;2.63;2.43;;;16.00;99.90;;;;;;5004280;28;20569;-74
2022/07/01 04:43:58;;;;;;;2.50;2.30;;;16.00;99.90;;;;;;5008586;28;20367;-75
2022/07/01 04:46:23;;;;;;;3.67;2.70;;;16.10;99.90;;;;;;5009399;28;20512;-75
2022/07/01 04:48:49;;;;;;;6.27;2.80;;;;;;;;;;5009585;28;20202;-74
2022/07/01 04:51:15;;;;;;;3.20;2.90;;;16.30;99.90;;;;;;5009794;28;20179;-74
2022/07/01 04:53:40;;;;;;;5.10;2.83;;;16.40;98.00;;;;;;5008377;28;20384;-75
2022/07/01 04:56:06;;;;;;;5.30;2.60;;;16.40;99.90;;;;;;5008504;28;20351;-75
2022/07/01 04:58:31;;;;;;;4.20;2.63;;;16.40;99.90;;;;;;5019717;28;20182;-75
2022/07/01 05:00:57;;;;;;;3.73;2.70;;;16.40;97.10;;;;;;5020553;28;20187;-74
2022/07/01 05:03:22;;;;;;;4.83;2.87;;;16.50;99.90;;;;;;5014061;28;20284;-74
2022/07/01 05:05:48;;;;;;;3.23;2.70;;;16.50;99.90;;;;;;5013041;28;20220;-74
2022/07/01 05:08:13;;;;;;;3.77;3.10;;;16.40;99.90;;;;;;5013782;28;20555;-74
2022/07/01 05:10:39;;;;;;;3.77;2.90;;;16.50;99.90;;;;;;4990842;28;20186;-74
2022/07/01 05:13:04;;;;;;;3.40;3.03;;;16.60;98.70;;;;;;5013104;28;20487;-74
2022/07/01 05:15:30;;;;;;;6.60;3.17;;;16.70;99.50;;;;;;5009082;28;20202;-74
2022/07/01 05:23:24;;;;;;;3.73;3.27;;;16.50;99.90;;;;;;5011205;28;20531;-74
2022/07/01 05:25:49;;;;;;;3.60;3.30;;;16.40;99.90;;;;;;5012132;28;20437;-74
2022/07/01 05:28:15;;;;;;;3.60;3.30;;;16.40;99.90;;;;;;5002258;28;20269;-74
2022/07/01 05:30:40;;;;;;;5.07;3.50;;;16.40;99.90;;;;;;4998683;28;20202;-74
2022/07/01 05:33:06;;;;;;;4.40;3.60;;;16.40;95.60;;;;;;4993405;28;20214;-74
2022/07/01 05:35:31;;;;;;;4.13;3.73;;;16.30;97.20;;;;;;5012041;28;20208;-74
2022/07/01 05:37:58;;;;;;;4.87;3.80;;;16.30;97.00;;;;;;5011960;28;20679;-74
2022/07/01 05:40:24;;;;;;;4.23;3.83;;;16.30;98.00;;;;;;5007946;28;20393;-75
2022/07/01 05:42:50;;;;;;;6.90;4.20;;;16.30;97.20;;;;;;4994252;28;20520;-75
2022/07/01 05:45:15;;;;;;;6.73;4.50;;;16.30;99.90;;;;;;4991868;28;20202;-75
2022/07/01 05:47:41;;;;;;;6.10;4.90;;;16.40;99.90;;;;;;5005627;28;20590;-75
2022/07/01 05:50:06;;;;;;;5.70;4.67;;;16.20;99.90;;;;;;4992034;28;20675;-75
2022/07/01 05:52:32;;;;;;;9.03;5.33;;;16.00;99.90;;;;;;5010133;28;20565;-75
2022/07/01 05:54:57;;;;;;;9.33;5.30;;;16.00;99.90;;;;;;5006912;28;20237;-74
2022/07/01 05:57:23;;;;;;;6.13;4.63;;;16.10;99.90;;;;;;5011956;28;20253;-74
2022/07/01 05:59:48;;;;;;;7.07;4.93;;;16.20;99.90;;;;;;5027732;28;20637;-73
2022/07/01 06:02:14;;;;;;;4.87;4.37;;;16.10;99.90;;;;;;5010454;28;20274;-74
2022/07/01 06:04:39;;;;;;;5.27;4.73;;;16.00;99.90;;;;;;5011541;28;20209;-73
2022/07/01 06:07:05;;;;;;;6.70;4.70;;;15.90;99.90;;;;;;4994113;28;20269;-75
2022/07/01 06:09:30;;;;;;;7.83;5.40;;;15.90;99.90;;;;;;5010513;28;20206;-74
2022/07/01 06:11:56;;;;;;;7.33;4.73;;;16.00;99.90;;;;;;4993143;28;20270;-76
2022/07/01 06:14:21;;;;;;;9.27;4.80;;;16.00;99.90;;;;;;5011871;28;20182;-72
2022/07/01 06:16:47;;;;;;;6.30;4.63;;;16.00;99.90;;;;;;5009856;28;20217;-75
2022/07/01 06:19:12;;;;;;;8.13;4.10;;;15.90;99.90;;;;;;5008195;28;20194;-77
2022/07/01 06:21:38;;;;;;;18.13;5.20;;;15.90;99.90;;;;;;4988820;28;20178;-76
2022/07/01 06:24:04;;;;;;;15.53;5.60;;;15.90;99.90;;;;;;5010624;28;20213;-76
2022/07/01 06:26:29;;;;;;;13.23;5.03;;;15.80;99.90;;;;;;5007643;28;20581;-76
2022/07/01 06:28:55;;;;;;;7.23;4.40;;;15.70;99.90;;;;;;5029425;28;20174;-76
2022/07/01 06:31:23;;;;;;;7.07;4.87;;;15.70;99.90;;;;;;5029069;28;20170;-76
2022/07/01 06:33:49;;;;;;;24.80;5.67;;;15.60;99.90;;;;;;5025256;28;20201;-78
2022/07/01 06:36:14;;;;;;;6.37;4.43;;;15.70;99.90;;;;;;5008457;28;20888;-77
2022/07/01 06:38:40;;;;;;;13.67;6.20;;;15.60;99.90;;;;;;5001882;28;20201;-77
2022/07/01 06:43:49;;;;;;;11.87;6.77;;;15.70;99.90;;;;;;5000316;28;20212;-75
2022/07/01 06:46:15;;;;;;;6.43;5.27;;;15.70;99.90;;;;;;5001556;28;20454;-76
2022/07/01 06:48:40;;;;;;;6.87;5.33;;;16.10;99.90;;;;;;4990013;28;20166;-76
2022/07/01 06:51:06;;;;;;;6.40;4.90;;;15.80;99.90;;;;;;5009770;28;20193;-74
2022/07/01 06:53:31;;;;;;;7.70;5.20;;;15.80;99.90;;;;;;4986222;28;20186;-75
2022/07/01 06:55:57;;;;;;;5.40;4.20;;;15.80;99.90;;;;;;4991302;28;20730;-75
2022/07/01 06:58:23;;;;;;;4.87;3.70;;;15.60;99.90;;;;;;4990179;28;20189;-75
2022/07/01 07:00:48;;;;;;;12.57;4.67;;;15.60;99.90;;;;;;5009388;28;20608;-74
2022/07/01 07:03:14;;;;;;;4.70;4.20;;;15.60;99.90;;;;;;4988361;28;20692;-74
2022/07/01 07:05:39;;;;;;;16.83;5.40;;;15.70;99.90;;;;;;5018226;28;20212;-74
2022/07/01 07:08:05;;;;;;;4.93;4.43;;;15.80;99.90;;;;;;4994280;28;20190;-74
2022/07/01 07:10:30;;;;;;;7.80;4.50;;;15.90;99.90;;;;;;5006719;28;20579;-75
2022/07/01 07:12:56;;;;;;;8.17;5.23;;;16.00;99.90;;;;;;5008589;28;20695;-75
2022/07/01 07:15:22;;;;;;;6.53;4.97;;;16.10;99.90;;;;;;4987516;28;20202;-75
2022/07/01 07:17:47;;;;;;;9.60;4.10;;;16.20;99.90;;;;;;4987915;28;20193;-74
2022/07/01 07:20:13;;;;;;;4.80;4.30;;;16.20;99.90;;;;;;5009863;28;20629;-74
2022/07/01 07:22:38;;;;;;;8.47;4.97;;;16.20;99.90;;;;;;5007541;28;20193;-75
2022/07/01 07:25:04;;;;;;;6.70;4.50;;;16.10;99.90;;;;;;5007999;28;20214;-75
2022/07/01 07:27:30;;;;;;;6.10;4.53;;;16.30;99.90;;;;;;4996473;28;20188;-75
2022/07/01 07:29:55;;;;;;;10.00;4.47;;;16.30;99.90;;;;;;5016282;28;20175;-75
2022/07/01 07:32:21;;;;;;;8.83;5.10;;;16.40;99.90;;;;;;5007926;28;20258;-75
2022/07/01 07:34:46;;;;;;;7.00;4.40;;;16.50;99.90;;;;;;5006718;28;20293;-74
2022/07/01 07:37:12;;;;;;;11.23;5.10;;;16.70;99.90;;;;;;5006422;28;20582;-75
2022/07/01 07:39:37;;;;;;;10.40;4.40;;;16.80;99.90;;;;;;4989692;28;20562;-75
2022/07/01 07:42:05;;;;;;;6.40;4.90;;;16.90;99.90;;;;;;5003173;28;20509;-75
2022/07/01 07:44:31;;;;;;;10.70;4.70;;;16.80;99.90;;;;;;5005833;28;20353;-75
2022/07/01 07:46:56;;;;;;;4.73;4.33;;;16.90;99.90;;;;;;5005820;28;20494;-74
2022/07/01 07:49:23;;;;;;;5.17;4.20;;;16.90;99.90;;;;;;4988004;28;20199;-75
2022/07/01 07:51:48;;;;;;;4.87;4.37;;;17.00;99.90;;;;;;5012500;28;20277;-75
2022/07/01 07:54:14;;;;;;;5.47;4.00;;;16.90;99.90;;;;;;4991384;28;20508;-75
2022/07/01 07:56:39;;;;;;;4.33;3.93;;;16.90;99.90;;;;;;5008146;28;20201;-75
2022/07/01 07:59:05;;;;;;;4.67;3.80;;;16.80;99.90;;;;;;5015014;28;20194;-75
2022/07/01 08:01:30;;;;;;;5.90;4.80;;;16.70;99.90;;;;;;5020753;28;20177;-75
2022/07/01 08:03:56;;;;;;;4.30;3.90;;;16.90;99.90;;;;;;5007352;28;20232;-74
2022/07/01 08:06:21;;;;;;;4.53;3.90;;;17.00;99.90;;;;;;5015274;28;20297;-75
2022/07/01 08:08:47;;;;;;;8.10;3.67;;;17.10;99.90;;;;;;5010820;28;20546;-75
2022/07/01 08:11:13;;;;;;;4.60;4.13;;;17.40;99.90;;;;;;5007842;28;20170;-75
2022/07/01 08:13:38;;;;;;;5.77;4.57;;;17.60;99.90;;;;;;5007894;28;20197;-75
2022/07/01 08:16:04;;;;;;;7.07;4.53;;;17.80;99.90;;;;;;4990091;28;20672;-75
2022/07/01 08:18:30;;;;;;;4.80;4.30;;;17.90;99.90;;;;;;5008014;28;20187;-74
2022/07/01 08:20:55;;;;;;;7.53;4.10;;;17.40;99.90;;;;;;4992356;28;20178;-75
2022/07/01 08:23:22;;;;;;;5.37;4.30;;;17.10;99.90;;;;;;4999708;28;20193;-75
2022/07/01 08:25:49;;;;;;;4.70;3.90;;;16.80;99.90;;;;;;5009623;28;20303;-75
2022/07/01 08:28:14;;;;;;;7.63;3.80;;;16.60;99.90;;;;;;5015986;28;20455;-74
2022/07/01 08:30:40;;;;;;;4.23;3.83;;;16.50;99.90;;;;;;5013464;28;20947;-74
2022/07/01 08:33:06;;;;;;;6.50;4.50;;;16.30;99.90;;;;;;5006968;28;20178;-75
2022/07/01 08:35:31;;;;;;;5.07;4.57;;;16.40;99.90;;;;;;4996429;28;20209;-73
2022/07/01 08:37:57;;;;;;;5.50;4.10;;;16.30;99.90;;;;;;5011594;28;20178;-75
2022/07/01 08:40:27;;;;;;;7.27;4.30;;;16.10;99.90;;;;;;4989113;28;20174;-74
2022/07/01 08:43:01;;;;;;;9.43;5.03;;;16.00;99.90;;;;;;5007484;28;20641;-74
2022/07/01 08:45:29;;;;;;;7.13;5.03;;;16.00;99.90;;;;;;4993112;28;20572;-77
2022/07/01 08:48:00;;;;;;;7.47;5.07;;;16.10;99.90;;;;;;5019703;28;20524;-75
2022/07/01 08:50:27;;;;;;;8.67;5.30;;;16.40;99.90;;;;;;5016623;28;20787;-74
2022/07/01 08:52:53;;;;;;;8.93;5.37;;;16.30;99.90;;;;;;5018281;28;20428;-74
2022/07/01 08:55:20;;;;;;;6.40;4.90;;;16.30;99.90;;;;;;5021700;28;20590;-76
2022/07/01 08:57:47;;;;;;;7.43;4.80;;;16.20;99.90;;;;;;5016631;28;20433;-74
2022/07/01 09:00:13;;;;;;;8.37;4.83;;;16.10;99.90;;;;;;4996039;28;20439;-74
2022/07/01 09:02:57;;;;;;;5.13;4.47;;;16.10;99.90;;;;;;5007602;28;20432;-75
2022/07/01 09:05:25;;;;;;;6.37;5.30;;;16.20;99.90;;;;;;4985444;28;20630;-75
2022/07/01 09:08:04;;;;;;;6.93;4.70;;;16.10;99.90;;;;;;5006378;28;20460;-74
2022/07/01 09:10:33;;;;;;;4.20;3.80;;;16.10;99.90;;;;;;4988216;28;20441;-75
2022/07/01 09:13:05;;;;;;;5.13;3.83;;;16.20;99.90;;;;;;5020776;28;20401;-75
2022/07/01 09:15:31;;;;;;;4.70;3.47;;;16.30;99.90;;;;;;5008554;28;20452;-75
2022/07/01 09:18:16;;;;;;;5.57;3.30;;;16.60;99.90;;;;;;4990105;28;20448;-75
2022/07/01 09:20:49;;;;;;;5.17;3.30;;;16.70;99.90;;;;;;5005359;28;21013;-74
2022/07/01 09:23:17;;;;;;;5.97;3.90;;;16.90;99.90;;;;;;4996660;28;20527;-75
2022/07/01 09:25:50;;;;;;;5.10;2.93;;;17.10;99.90;;;;;;5010363;28;20760;-74
2022/07/01 09:28:21;;;;;;;4.57;3.53;;;17.00;99.90;;;;;;5014820;28;20505;-74
2022/07/01 09:30:50;;;;;;;6.07;3.50;;;16.90;99.90;;;;;;5013983;28;20429;-74
2022/07/01 09:33:24;;;;;;;5.27;3.10;;;16.60;99.90;;;;;;5014294;28;20429;-74
2022/07/01 09:35:51;;;;;;;2.87;2.57;;;16.30;99.90;;;;;;5025652;28;20425;-75
2022/07/01 09:38:18;;;;;;;4.20;3.30;;;16.30;99.90;;;;;;5015916;28;20804;-74
2022/07/01 09:41:03;;;;;;;6.87;3.80;;;16.20;99.90;;;;;;4997330;28;20444;-74
2022/07/01 09:43:33;;;;;;;5.17;3.33;;;16.40;99.90;;;;;;4989536;28;20505;-75
2022/07/01 09:46:18;;;;;;;5.40;3.40;;;16.40;99.90;;;;;;5006055;28;20453;-74
2022/07/01 09:48:45;;;;;;;4.73;3.43;;;16.50;99.90;;;;;;5013394;28;20480;-74
2022/07/01 09:51:12;;;;;;;4.20;3.47;;;16.50;99.90;;;;;;5010611;28;20434;-74
2022/07/01 09:53:38;;;;;;;3.40;3.10;;;16.60;99.90;;;;;;5011838;28;20607;-74
2022/07/01 09:56:04;;;;;;;6.93;3.40;;;16.70;99.90;;;;;;5008641;28;21063;-74
2022/07/01 09:58:32;;;;;;;3.33;3.03;;;16.80;99.90;;;;;;5012731;28;20361;-74
2022/07/01 10:00:58;;;;;;;3.70;3.30;;;16.90;99.90;;;;;;5001717;28;20905;-74
2022/07/01 10:03:26;;;;;;;5.07;3.90;;;17.20;99.90;;;;;;5013089;28;20425;-74
2022/07/01 10:06:06;;;;;;;4.23;3.43;;;17.70;99.90;;;;;;5009062;28;20453;-75
2022/07/01 10:08:46;;;;;;;3.93;3.63;;;18.40;99.90;;;;;;5009094;28;20429;-74
2022/07/01 10:11:39;;;;;;;6.73;4.50;;;19.00;99.20;;;;;;5009329;28;20788;-74
2022/07/01 10:14:06;;;;;;;7.17;4.40;;;19.40;99.90;;;;;;5004931;28;20429;-75
2022/07/01 10:16:32;;;;;;;5.43;4.60;;;19.60;93.30;;;;;;5021846;28;20449;-75
2022/07/01 10:18:58;;;;;;;4.90;4.20;;;19.90;99.90;;;;;;4991291;28;20974;-74
2022/07/01 10:21:28;;;;;;;5.53;4.30;;;20.60;90.70;;;;;;5010178;28;20425;-74
2022/07/01 10:24:19;;;;;;;4.50;4.07;;;21.20;67.10;;;;;;5013198;28;20208;-75
2022/07/01 10:26:46;;;;;;;4.50;3.50;;;21.80;47.90;;;;;;5016675;28;20432;-75
2022/07/01 10:29:32;;;;;;;4.17;3.77;;;22.70;48.60;;;;;;5022567;28;20428;-75
2022/07/01 10:32:11;;;;;;;4.10;3.20;;;23.70;16.30;;;;;;4992292;28;20420;-75
2022/07/01 10:34:39;;;;;;;4.60;3.47;;;24.00;1.00;;;;;;5008702;28;20538;-73
2022/07/01 10:37:08;;;;;;;5.60;3.37;;;24.00;1.00;;;;;;4990224;28;20441;-76
2022/07/01 10:39:57;;;;;;;6.67;3.50;;;23.90;1.00;;;;;;4990794;28;20594;-75
2022/07/01 10:42:28;;;;;;;5.43;3.40;;;24.00;1.00;;;;;;5007192;28;20845;-75
2022/07/01 10:45:09;;;;;;;5.10;3.50;;;23.90;1.00;;;;;;5008900;28;20552;-75
2022/07/01 10:47:36;;;;;;;5.23;3.07;;;23.60;1.00;;;;;;5006591;28;20942;-75
2022/07/01 10:50:10;;;;;;;4.30;3.27;;;23.40;1.00;;;;;;5008257;28;20437;-75
2022/07/01 10:52:36;;;;;;;4.23;3.40;;;23.20;1.00;;;;;;5008147;28;20437;-75
2022/07/01 10:55:08;;;;;;;5.70;3.57;;;23.20;1.00;;;;;;5008740;28;20451;-75
2022/07/01 10:57:40;;;;;;;6.80;3.50;;;23.50;1.00;;;;;;5008966;28;20443;-75
2022/07/01 11:00:05;;;;;;;3.47;2.80;;;23.50;1.00;;;;;;5001736;28;20953;-75
2022/07/01 11:02:37;;;;;;;4.80;3.47;;;23.10;1.00;;;;;;5023042;28;20441;-75
2022/07/01 11:05:14;;;;;;;5.30;3.30;;;23.00;1.00;;;;;;5014908;28;20213;-75
2022/07/01 11:07:42;;;;;;;4.90;3.33;;;23.00;1.00;;;;;;5009162;28;20507;-75
2022/07/01 11:10:13;;;;;;;8.20;3.23;;;24.10;1.00;;;;;;4999998;28;20818;-75
2022/07/01 11:12:40;;;;;;;4.97;3.60;;;25.80;1.00;;;;;;5026387;28;20442;-75
2022/07/01 11:15:07;;;;;;;5.13;3.20;;;27.50;1.00;;;;;;5013270;28;20502;-75
2022/07/01 11:17:34;;;;;;;4.40;2.90;;;29.00;1.00;;;;;;5014860;28;20844;-75
2022/07/01 11:20:02;;;;;;;4.50;3.00;;;30.40;1.00;;;;;;5012186;28;20181;-76
2022/07/01 11:22:29;;;;;;;5.10;2.78;;;32.00;1.00;;;;;;5024350;28;20176;-77
2022/07/01 11:25:01;;;;;;;4.43;2.80;;;33.10;1.00;;;;;;5012016;28;20217;-76
2022/07/01 11:27:28;;;;;;;4.00;2.70;;;33.40;1.00;;;;;;5011791;28;20185;-76
2022/07/01 11:29:56;;;;;;;4.07;2.70;;;32.80;1.00;;;;;;4995512;28;20174;-75
2022/07/01 11:32:26;;;;;;;4.53;2.65;;;31.60;1.00;;;;;;4999520;28;20174;-76
2022/07/01 11:34:52;;;;;;;5.32;2.97;;;31.60;1.00;;;;;;5004331;28;20221;-77
2022/07/01 11:40:06;;;;;;;3.47;2.78;;;32.30;1.00;;;;;;5002179;28;20204;-75
2022/07/01 11:42:32;;;;;;;3.35;2.80;;;31.30;1.00;;;;;;4991444;28;20264;-76
2022/07/01 11:44:57;;;;;;;4.30;2.78;;;29.90;1.00;;;;;;5018945;28;20224;-75
2022/07/01 11:47:24;;;;;;;5.30;2.90;;;28.50;1.00;;;;;;5025418;28;20220;-75
2022/07/01 11:49:50;;;;;;;6.45;3.05;;;28.80;1.00;;;;;;4999921;28;20560;-75
2022/07/01 11:52:20;;;;;;;3.60;2.25;;;30.70;1.00;;;;;;5014474;28;20173;-75
2022/07/01 11:54:48;;;;;;;4.43;2.60;;;31.00;1.00;;;;;;5013626;28;20198;-76
2022/07/01 11:57:23;;;;;;;3.45;2.80;;;30.60;1.00;;;;;;5007884;28;20184;-76
2022/07/01 11:59:51;;;;;;;5.45;2.85;;;31.80;1.00;;;;;;4993667;28;20275;-76
2022/07/01 12:02:18;;;;;;;3.13;2.42;;;31.70;1.00;;;;;;4990074;28;20216;-76
2022/07/01 12:04:45;;;;;;;4.25;2.70;;;30.70;1.00;;;;;;5019518;28;20221;-77
2022/07/01 12:07:12;;;;;;;5.25;2.40;;;30.90;1.00;;;;;;5015077;28;20483;-76
2022/07/01 12:09:38;;;;;;;4.90;2.92;;;30.30;1.00;;;;;;5007114;28;20205;-76
2022/07/01 12:12:05;;;;;;;3.30;2.70;;;29.20;1.00;;;;;;4990031;28;20177;-75
2022/07/01 12:14:33;;;;;;;5.40;2.90;;;28.40;1.00;;;;;;5008078;28;20684;-75
2022/07/01 12:17:08;;;;;;;3.43;2.70;;;27.70;1.00;;;;;;5007454;28;20261;-75
2022/07/01 12:19:42;;;;;;;4.27;2.67;;;26.90;1.00;;;;;;5015048;28;20187;-75
2022/07/01 12:22:10;;;;;;;4.30;2.60;;;26.30;1.00;;;;;;5020115;28;20272;-75
2022/07/01 12:24:36;;;;;;;3.87;2.70;;;26.30;1.00;;;;;;5020286;28;20703;-75
2022/07/01 12:27:06;;;;;;;5.00;2.87;;;26.80;1.00;;;;;;5001590;28;20270;-75
2022/07/01 12:29:51;;;;;;;4.67;2.83;;;26.80;1.00;;;;;;5020132;28;20597;-75
2022/07/01 12:32:24;;;;;;;4.30;2.97;;;26.00;1.00;;;;;;4983116;28;20467;-75
2022/07/01 12:34:56;;;;;;;4.67;2.83;;;25.50;1.00;;;;;;5006641;28;20520;-75
2022/07/01 12:37:33;;;;;;;5.03;3.20;;;24.90;1.00;;;;;;5007490;28;20436;-75
2022/07/01 12:40:05;;;;;;;4.33;3.00;;;24.60;1.00;;;;;;5007177;28;20445;-75
2022/07/01 12:42:34;;;;;;;4.17;3.20;;;24.50;1.00;;;;;;5023304;28;20420;-75
2022/07/01 12:45:02;;;;;;;4.43;2.80;;;24.80;1.00;;;;;;4991425;28;20506;-74
2022/07/01 12:47:33;;;;;;;5.33;3.10;;;24.50;1.00;;;;;;5011530;28;20774;-75
2022/07/01 12:50:09;;;;;;;4.00;2.70;;;24.50;1.00;;;;;;5015009;28;20424;-74
2022/07/01 12:52:35;;;;;;;4.03;2.87;;;24.50;1.00;;;;;;5013517;28;20520;-74
2022/07/01 12:55:00;;;;;;;4.07;2.70;;;24.90;1.00;;;;;;5009671;28;21033;-77
2022/07/01 12:57:31;;;;;;;4.13;3.00;;;26.70;1.00;;;;;;5005109;28;20186;-74
2022/07/01 12:59:57;;;;;;;4.30;2.90;;;29.20;1.00;;;;;;5009625;28;20247;-75
2022/07/01 13:02:23;;;;;;;3.83;2.77;;;31.00;1.00;;;;;;5004902;28;20277;-75
2022/07/01 13:04:49;;;;;;;3.17;2.50;;;31.90;1.00;;;;;;5007912;28;20560;-74